Time;durP1;ratioP1;P1;durP2;ratioP2;P2;SDS_P1;SDS_P2;PMS_P1;PMS_P2;Temp;Humidity;BMP_temperature;BMP_pressure;BME280_temperature;BME280_humidity;BME280_pressure;Samples;Min_cycle;Max_cycle;Signal;HPM_P1;HPM_P2
2023/04/21 00:01:07;;;;;;;15.65;12.05;;;11.20;99.90;;;;;;5041135;28;20037;-80
2023/04/21 00:03:37;;;;;;;19.35;12.75;;;10.90;99.90;;;;;;5067600;28;20044;-81
2023/04/21 00:06:06;;;;;;;21.42;13.02;;;11.00;99.90;;;;;;5025221;28;20068;-83
2023/04/21 00:08:32;;;;;;;17.05;11.68;;;11.00;99.90;;;;;;5043580;28;20139;-83
2023/04/21 00:10:58;;;;;;;17.42;12.60;;;11.20;99.90;;;;;;5072357;28;20075;-79
2023/04/21 00:13:24;;;;;;;20.42;12.68;;;11.20;99.90;;;;;;5055027;28;20045;-79
2023/04/21 00:15:50;;;;;;;14.60;11.68;;;11.10;99.90;;;;;;5047353;28;20357;-83
2023/04/21 00:18:16;;;;;;;14.70;9.90;;;10.80;99.90;;;;;;5059636;28;20087;-79
2023/04/21 00:20:43;;;;;;;19.08;11.55;;;11.10;99.90;;;;;;5057488;28;20041;-79
2023/04/21 00:23:12;;;;;;;17.73;11.80;;;11.10;99.90;;;;;;5061994;28;20607;-80
2023/04/21 00:25:38;;;;;;;17.77;11.30;;;11.10;99.90;;;;;;5037501;28;20036;-81
2023/04/21 00:28:04;;;;;;;18.42;13.32;;;11.00;99.90;;;;;;5049047;28;20055;-78
2023/04/21 00:30:30;;;;;;;19.25;12.48;;;10.70;99.90;;;;;;5012596;28;20512;-81
2023/04/21 00:32:55;;;;;;;15.93;12.38;;;11.00;99.90;;;;;;5068483;28;20489;-80
2023/04/21 00:35:21;;;;;;;15.80;11.27;;;10.80;99.90;;;;;;5028885;28;20513;-83
2023/04/21 00:37:49;;;;;;;17.15;11.65;;;10.60;99.90;;;;;;5038363;28;20041;-81
2023/04/21 00:40:15;;;;;;;19.42;12.00;;;11.00;99.90;;;;;;5042770;28;20033;-82
2023/04/21 00:42:40;;;;;;;15.13;11.82;;;11.00;99.90;;;;;;5055067;28;20056;-83
2023/04/21 00:45:06;;;;;;;16.25;12.15;;;10.90;99.90;;;;;;5062965;28;20040;-80
2023/04/21 00:47:32;;;;;;;18.98;12.00;;;11.00;99.90;;;;;;5048884;28;20048;-81
2023/04/21 00:49:58;;;;;;;17.75;11.60;;;11.00;99.90;;;;;;5034991;28;20405;-81
2023/04/21 00:52:25;;;;;;;20.38;12.57;;;10.90;99.90;;;;;;5048746;28;20041;-78
2023/04/21 00:54:52;;;;;;;18.38;11.25;;;10.90;99.90;;;;;;5040644;28;20087;-78
2023/04/21 00:57:18;;;;;;;22.67;12.88;;;10.90;99.90;;;;;;5034813;28;20041;-79
2023/04/21 00:59:44;;;;;;;16.33;10.95;;;10.70;99.90;;;;;;5031453;28;20072;-80
2023/04/21 01:02:10;;;;;;;18.15;12.45;;;10.70;99.90;;;;;;5037381;28;20540;-79
2023/04/21 01:04:38;;;;;;;17.30;11.55;;;10.90;99.90;;;;;;5031084;28;20127;-80
2023/04/21 01:07:05;;;;;;;16.85;12.15;;;10.60;99.90;;;;;;5049636;28;20124;-79
2023/04/21 01:09:32;;;;;;;15.70;11.80;;;10.90;99.90;;;;;;5062990;28;20118;-79
2023/04/21 01:12:09;;;;;;;18.50;12.98;;;10.90;99.90;;;;;;5028729;28;20203;-79
2023/04/21 01:14:36;;;;;;;20.33;11.68;;;10.80;99.90;;;;;;5066853;28;20036;-83
2023/04/21 01:17:06;;;;;;;17.63;11.90;;;10.60;99.90;;;;;;5048958;28;20109;-81
2023/04/21 01:19:36;;;;;;;20.23;11.98;;;10.60;99.90;;;;;;5048561;28;20395;-80
2023/04/21 01:22:12;;;;;;;18.63;12.23;;;10.90;99.90;;;;;;5046296;28;20037;-81
2023/04/21 01:24:46;;;;;;;14.85;10.98;;;10.50;99.90;;;;;;5055992;28;20033;-79
2023/04/21 01:27:19;;;;;;;16.40;12.23;;;10.90;99.90;;;;;;5051317;28;20380;-79
2023/04/21 01:29:48;;;;;;;15.82;10.25;;;10.90;99.90;;;;;;5089967;28;20105;-80
2023/04/21 01:32:16;;;;;;;19.40;12.55;;;10.90;99.90;;;;;;5059633;28;20055;-81
2023/04/21 01:34:43;;;;;;;17.63;12.10;;;10.90;99.90;;;;;;5060611;28;20068;-82
2023/04/21 01:37:17;;;;;;;22.27;11.82;;;10.50;99.90;;;;;;5018133;28;20496;-77
2023/04/21 01:39:45;;;;;;;16.65;11.75;;;10.90;99.90;;;;;;5061129;28;20044;-81
2023/04/21 01:42:12;;;;;;;17.73;13.23;;;10.50;99.90;;;;;;5067858;28;20590;-79
2023/04/21 01:44:39;;;;;;;16.92;12.73;;;10.70;99.90;;;;;;5051720;28;20388;-83
2023/04/21 01:47:05;;;;;;;19.02;12.90;;;10.60;99.90;;;;;;5049145;28;20075;-81
2023/04/21 01:49:31;;;;;;;21.33;13.15;;;10.40;99.90;;;;;;5058354;28;20028;-83
2023/04/21 01:51:57;;;;;;;16.35;12.15;;;10.20;99.90;;;;;;5066920;28;20048;-78
2023/04/21 01:54:23;;;;;;;18.05;12.75;;;10.50;99.90;;;;;;5046657;28;20040;-84
2023/04/21 01:56:48;;;;;;;24.17;13.75;;;10.30;99.90;;;;;;5031613;28;20068;-79
2023/04/21 01:59:14;;;;;;;19.75;12.52;;;10.30;99.90;;;;;;5059987;28;20036;-80
2023/04/21 02:01:40;;;;;;;18.05;12.75;;;10.60;99.90;;;;;;5042188;28;20119;-82
2023/04/21 02:04:05;;;;;;;21.30;13.13;;;10.30;99.90;;;;;;5027064;28;20370;-80
2023/04/21 02:06:31;;;;;;;17.77;12.07;;;10.40;99.90;;;;;;5066202;28;20144;-82
2023/04/21 02:08:57;;;;;;;16.17;11.68;;;10.20;99.90;;;;;;5062292;28;20045;-81
2023/04/21 02:11:26;;;;;;;19.00;13.02;;;10.30;99.90;;;;;;5017575;28;20074;-81
2023/04/21 02:13:55;;;;;;;19.92;13.55;;;10.20;99.90;;;;;;5028867;28;20044;-80
2023/04/21 02:16:25;;;;;;;18.05;11.98;;;10.20;99.90;;;;;;5046202;28;20051;-79
2023/04/21 02:18:58;;;;;;;20.13;12.57;;;10.10;99.90;;;;;;5041106;28;20049;-80
2023/04/21 02:21:24;;;;;;;21.08;12.65;;;10.40;99.90;;;;;;5055465;28;20044;-79
2023/04/21 02:23:50;;;;;;;15.63;11.77;;;10.40;99.90;;;;;;5063564;28;20049;-79
2023/04/21 02:26:16;;;;;;;18.73;12.73;;;10.30;99.90;;;;;;5044340;28;20048;-80
2023/04/21 02:28:42;;;;;;;16.13;13.05;;;10.50;99.90;;;;;;5046592;28;20041;-77
2023/04/21 02:31:08;;;;;;;18.60;13.15;;;10.50;99.90;;;;;;5057191;28;20040;-79
2023/04/21 02:33:34;;;;;;;18.88;12.63;;;10.20;99.90;;;;;;5031244;28;20127;-81
2023/04/21 02:35:59;;;;;;;20.08;12.13;;;10.00;99.90;;;;;;5045894;28;20143;-83
2023/04/21 02:38:25;;;;;;;16.92;12.95;;;10.40;99.90;;;;;;5030925;28;20132;-82
2023/04/21 02:40:51;;;;;;;17.65;12.90;;;10.40;99.90;;;;;;5044460;28;20048;-80
2023/04/21 02:43:17;;;;;;;17.52;13.35;;;10.40;99.90;;;;;;5036070;28;20051;-82
2023/04/21 02:45:43;;;;;;;23.92;12.27;;;10.30;99.90;;;;;;5064341;28;20040;-81
2023/04/21 02:48:08;;;;;;;18.80;12.57;;;10.20;99.90;;;;;;5067035;28;20117;-81
2023/04/21 02:50:35;;;;;;;17.42;12.32;;;10.40;99.90;;;;;;5037839;28;20111;-79
2023/04/21 02:53:01;;;;;;;18.45;13.40;;;10.10;99.90;;;;;;5066768;28;20553;-82
2023/04/21 02:55:26;;;;;;;18.45;12.05;;;10.60;99.90;;;;;;5054363;28;20111;-81
2023/04/21 02:57:52;;;;;;;20.38;11.93;;;10.30;99.90;;;;;;5032049;28;20123;-79
2023/04/21 03:00:19;;;;;;;19.00;12.55;;;10.00;99.90;;;;;;5031760;28;20033;-80
2023/04/21 03:02:45;;;;;;;17.98;11.35;;;10.40;99.90;;;;;;5068663;28;20044;-80
2023/04/21 03:05:11;;;;;;;20.98;13.63;;;10.20;99.90;;;;;;5059578;28;20047;-80
2023/04/21 03:07:37;;;;;;;20.23;12.70;;;10.00;99.90;;;;;;5052716;28;20059;-83
2023/04/21 03:10:05;;;;;;;20.08;13.00;;;10.00;99.90;;;;;;5032181;28;20654;-80
2023/04/21 03:12:30;;;;;;;17.55;13.07;;;10.10;99.90;;;;;;5018305;28;20037;-80
2023/04/21 03:14:56;;;;;;;18.38;11.70;;;10.30;99.90;;;;;;5061031;28;20151;-81
2023/04/21 03:17:22;;;;;;;20.13;12.85;;;10.10;99.90;;;;;;5070745;28;20127;-79
2023/04/21 03:19:47;;;;;;;21.60;13.27;;;9.90;99.90;;;;;;5056585;28;20047;-79
2023/04/21 03:22:13;;;;;;;16.50;12.30;;;9.90;99.90;;;;;;5051137;28;20036;-82
2023/04/21 03:24:39;;;;;;;18.65;13.05;;;10.10;99.90;;;;;;5035593;28;20044;-79
2023/04/21 03:27:05;;;;;;;18.13;12.98;;;10.20;99.90;;;;;;5053376;28;20036;-81
2023/04/21 03:29:31;;;;;;;17.50;12.05;;;9.80;99.90;;;;;;5043834;28;20407;-78
2023/04/21 03:31:56;;;;;;;18.65;12.52;;;10.20;99.90;;;;;;5038493;28;20124;-78
2023/04/21 03:34:22;;;;;;;19.10;11.60;;;9.90;99.90;;;;;;5045108;28;20444;-83
2023/04/21 03:36:48;;;;;;;16.83;11.98;;;10.10;99.90;;;;;;5040695;28;20055;-80
2023/04/21 03:39:13;;;;;;;19.63;13.60;;;9.70;99.90;;;;;;5015222;28;20131;-77
2023/04/21 03:41:39;;;;;;;17.85;12.57;;;9.80;99.90;;;;;;5019482;28;20500;-78
2023/04/21 03:44:05;;;;;;;18.77;12.18;;;10.10;99.90;;;;;;5036352;28;20068;-79
2023/04/21 03:46:31;;;;;;;19.70;13.07;;;10.00;99.90;;;;;;5062659;28;20071;-78
2023/04/21 03:48:56;;;;;;;16.60;11.60;;;9.90;99.90;;;;;;5033106;28;20112;-81
2023/04/21 03:51:22;;;;;;;17.10;12.43;;;10.00;99.90;;;;;;5041209;28;20045;-78
2023/04/21 03:53:48;;;;;;;18.00;11.10;;;9.80;99.90;;;;;;5050339;28;20404;-77
2023/04/21 03:56:14;;;;;;;20.08;12.43;;;9.60;99.90;;;;;;5071161;28;20177;-79
2023/04/21 03:58:40;;;;;;;18.30;12.13;;;9.60;99.90;;;;;;5023938;28;20045;-78
2023/04/21 04:01:06;;;;;;;18.25;12.15;;;9.60;99.90;;;;;;5050546;28;20531;-79
2023/04/21 04:03:32;;;;;;;17.35;13.30;;;9.70;99.90;;;;;;5047423;28;20044;-79
2023/04/21 04:05:58;;;;;;;20.20;12.55;;;9.60;99.90;;;;;;5021178;28;20082;-78
2023/04/21 04:08:24;;;;;;;20.63;13.18;;;9.90;99.90;;;;;;5079693;28;20033;-78
2023/04/21 04:10:50;;;;;;;17.42;11.77;;;9.70;99.90;;;;;;5029677;28;20375;-81
2023/04/21 04:13:16;;;;;;;23.40;13.15;;;9.70;99.90;;;;;;5031281;28;20033;-78
2023/04/21 04:15:41;;;;;;;18.42;10.75;;;9.60;99.90;;;;;;5069680;28;20101;-80
2023/04/21 04:18:07;;;;;;;18.60;10.40;;;10.00;99.90;;;;;;5063411;28;20396;-78
2023/04/21 04:20:33;;;;;;;16.38;11.93;;;10.10;99.90;;;;;;5031538;28;20045;-81
2023/04/21 04:22:58;;;;;;;19.15;10.60;;;10.10;99.90;;;;;;5048686;28;20045;-77
2023/04/21 04:25:24;;;;;;;15.07;11.00;;;9.80;99.90;;;;;;5082979;28;20055;-84
2023/04/21 04:27:50;;;;;;;18.50;12.27;;;9.70;99.90;;;;;;5051674;28;20560;-80
2023/04/21 04:30:16;;;;;;;19.88;12.13;;;10.00;99.90;;;;;;5044597;28;20035;-80
2023/04/21 04:32:42;;;;;;;17.52;11.20;;;9.80;99.90;;;;;;5012504;28;20041;-79
2023/04/21 04:35:08;;;;;;;14.52;11.05;;;9.90;99.90;;;;;;5043658;28;20047;-82
2023/04/21 04:37:40;;;;;;;17.40;10.85;;;10.10;99.90;;;;;;5044226;28;20158;-80
2023/04/21 04:40:09;;;;;;;13.65;8.70;;;9.90;99.90;;;;;;5031880;28;20098;-78
2023/04/21 04:42:35;;;;;;;15.07;10.50;;;9.80;99.90;;;;;;5033102;28;20058;-81
2023/04/21 04:45:02;;;;;;;17.17;11.68;;;10.20;99.90;;;;;;5028351;28;20372;-81
2023/04/21 04:47:28;;;;;;;18.27;12.15;;;10.10;99.90;;;;;;5045820;28;20074;-79
2023/04/21 04:49:59;;;;;;;18.85;11.85;;;10.20;99.90;;;;;;5032936;28;20102;-81
2023/04/21 04:52:25;;;;;;;17.52;11.50;;;9.80;99.90;;;;;;5012435;28;20500;-79
2023/04/21 04:54:51;;;;;;;21.10;11.82;;;9.90;99.90;;;;;;5070892;28;20246;-79
2023/04/21 04:57:17;;;;;;;22.20;12.23;;;10.30;99.90;;;;;;5041169;28;20051;-77
2023/04/21 04:59:42;;;;;;;17.98;11.27;;;10.20;99.90;;;;;;5038444;28;20115;-79
2023/04/21 05:02:09;;;;;;;15.95;11.73;;;10.00;99.90;;;;;;5065401;28;20719;-78
2023/04/21 05:04:35;;;;;;;19.85;10.90;;;10.40;99.90;;;;;;5045348;28;20411;-83
2023/04/21 05:07:00;;;;;;;14.68;9.32;;;10.40;99.90;;;;;;5033074;28;20037;-82
2023/04/21 05:09:26;;;;;;;11.20;8.07;;;10.10;99.90;;;;;;5052307;28;20040;-79
2023/04/21 05:11:52;;;;;;;16.67;9.68;;;10.40;99.90;;;;;;5029121;28;20048;-77
2023/04/21 05:14:17;;;;;;;16.50;8.63;;;10.40;99.90;;;;;;5048105;28;20424;-76
2023/04/21 05:16:43;;;;;;;19.05;10.93;;;10.20;99.90;;;;;;5057415;28;20048;-80
2023/04/21 05:19:09;;;;;;;13.18;9.90;;;10.20;99.90;;;;;;5051644;28;20059;-77
2023/04/21 05:21:35;;;;;;;16.05;10.93;;;10.30;99.90;;;;;;5059563;28;21938;-79
2023/04/21 05:24:04;;;;;;;12.82;8.30;;;10.60;99.90;;;;;;5054447;28;20040;-79
2023/04/21 05:26:30;;;;;;;15.82;10.13;;;10.60;99.90;;;;;;5040884;28;20048;-78
2023/04/21 05:28:57;;;;;;;20.45;11.30;;;10.70;99.90;;;;;;5061821;28;20040;-80
2023/04/21 05:31:26;;;;;;;11.48;7.93;;;10.60;99.90;;;;;;5042435;28;20606;-76
2023/04/21 05:33:52;;;;;;;14.73;8.63;;;10.50;99.90;;;;;;5064871;28;20746;-81
2023/04/21 05:36:19;;;;;;;15.98;10.75;;;10.70;99.90;;;;;;5070197;28;20037;-79
2023/04/21 05:38:45;;;;;;;13.25;9.27;;;10.50;99.90;;;;;;5048092;28;20039;-81
2023/04/21 05:41:11;;;;;;;13.90;8.10;;;10.50;99.90;;;;;;5062983;28;20508;-81
2023/04/21 05:43:36;;;;;;;15.07;9.38;;;10.70;99.90;;;;;;5049066;28;20045;-83
2023/04/21 05:46:08;;;;;;;17.77;10.55;;;10.70;99.90;;;;;;5046945;28;20040;-78
2023/04/21 05:48:34;;;;;;;16.23;10.18;;;10.90;99.90;;;;;;5034235;28;20381;-76
2023/04/21 05:51:11;;;;;;;12.45;8.43;;;11.00;99.90;;;;;;5039071;28;20052;-75
2023/04/21 05:53:38;;;;;;;15.32;10.43;;;11.10;99.90;;;;;;5063251;28;20036;-80
2023/04/21 05:56:04;;;;;;;15.00;10.32;;;11.20;99.90;;;;;;5041485;28;20044;-78
2023/04/21 05:58:30;;;;;;;15.68;8.25;;;11.10;99.90;;;;;;5066113;28;20106;-78
2023/04/21 06:00:56;;;;;;;12.73;9.30;;;11.30;99.90;;;;;;5044074;28;20091;-76
2023/04/21 06:03:21;;;;;;;12.20;8.18;;;11.30;99.90;;;;;;5045131;28;20060;-78
2023/04/21 06:05:54;;;;;;;15.43;9.85;;;11.00;99.90;;;;;;5044698;28;20484;-81
2023/04/21 06:08:21;;;;;;;14.00;9.20;;;11.00;99.90;;;;;;5038067;28;20045;-80
2023/04/21 06:10:46;;;;;;;14.90;9.55;;;11.40;99.90;;;;;;5048325;28;20037;-80
2023/04/21 06:13:12;;;;;;;12.55;8.48;;;11.30;99.90;;;;;;5049207;28;20075;-83
2023/04/21 06:15:38;;;;;;;13.02;9.32;;;11.30;99.90;;;;;;5042747;28;20102;-81
2023/04/21 06:18:04;;;;;;;12.68;8.80;;;11.40;99.90;;;;;;5062380;28;20417;-77
2023/04/21 06:20:29;;;;;;;17.00;10.07;;;11.40;99.90;;;;;;5040005;28;20167;-81
2023/04/21 06:22:55;;;;;;;10.98;8.38;;;11.80;99.90;;;;;;5046766;28;20080;-78
2023/04/21 06:25:21;;;;;;;17.98;10.45;;;11.50;99.90;;;;;;5060756;28;20079;-77
2023/04/21 06:27:46;;;;;;;13.20;9.30;;;11.70;99.90;;;;;;5062574;28;20509;-77
2023/04/21 06:30:13;;;;;;;11.63;7.95;;;11.90;99.90;;;;;;5046285;28;20040;-80
2023/04/21 06:32:38;;;;;;;12.23;7.32;;;12.10;99.90;;;;;;5049153;28;20119;-79
2023/04/21 06:35:04;;;;;;;11.98;7.88;;;11.90;99.90;;;;;;5059626;28;20175;-80
2023/04/21 06:37:30;;;;;;;16.33;10.02;;;12.20;99.90;;;;;;5042338;28;20037;-75
2023/04/21 06:39:56;;;;;;;12.55;9.35;;;12.00;99.90;;;;;;5058730;28;20039;-78
2023/04/21 06:42:22;;;;;;;14.13;9.90;;;12.20;99.90;;;;;;5045681;28;20106;-76
2023/04/21 06:44:48;;;;;;;17.30;9.60;;;12.40;99.90;;;;;;5035535;28;20040;-78
2023/04/21 06:47:15;;;;;;;11.50;8.48;;;12.60;99.90;;;;;;5063152;28;20109;-80
2023/04/21 06:49:41;;;;;;;14.57;9.27;;;12.50;99.90;;;;;;5040709;28;20038;-78
2023/04/21 06:52:07;;;;;;;15.02;8.70;;;12.60;99.90;;;;;;5088558;28;20040;-78
2023/04/21 06:54:33;;;;;;;15.20;8.88;;;12.60;99.90;;;;;;5034742;28;20051;-79
2023/04/21 06:56:58;;;;;;;14.15;8.93;;;12.70;99.90;;;;;;5059620;28;20048;-77
2023/04/21 06:59:24;;;;;;;14.52;9.40;;;13.10;99.90;;;;;;5094883;28;20487;-80
2023/04/21 07:01:53;;;;;;;10.43;7.82;;;13.10;99.90;;;;;;5054304;28;20045;-79
2023/04/21 07:04:20;;;;;;;11.07;7.80;;;13.10;99.90;;;;;;5046190;28;20103;-81
2023/04/21 07:06:47;;;;;;;12.65;9.07;;;13.30;99.90;;;;;;5065701;28;20453;-79
2023/04/21 07:09:13;;;;;;;13.65;9.07;;;13.10;99.90;;;;;;5039158;28;20085;-80
2023/04/21 07:11:38;;;;;;;12.85;8.02;;;13.20;99.90;;;;;;5046487;28;20123;-81
2023/04/21 07:14:05;;;;;;;13.40;9.02;;;13.40;99.90;;;;;;5042583;28;20818;-84
2023/04/21 07:16:31;;;;;;;10.75;8.30;;;13.30;99.90;;;;;;5056987;28;20037;-85
2023/04/21 07:18:57;;;;;;;12.68;8.50;;;13.60;99.90;;;;;;5051988;28;20380;-83
2023/04/21 07:21:23;;;;;;;12.38;8.55;;;13.40;99.90;;;;;;5044981;28;20697;-84
2023/04/21 07:23:49;;;;;;;13.98;9.10;;;13.80;99.90;;;;;;5049305;28;20029;-83
2023/04/21 07:26:16;;;;;;;13.82;8.75;;;13.70;99.90;;;;;;5038447;28;20158;-83
2023/04/21 07:28:45;;;;;;;14.85;8.95;;;13.90;99.90;;;;;;5023966;28;20468;-79
2023/04/21 07:31:11;;;;;;;18.10;7.65;;;14.20;99.90;;;;;;5051387;28;20083;-80
2023/04/21 07:33:37;;;;;;;11.98;6.43;;;13.90;99.90;;;;;;5056800;28;20052;-78
2023/04/21 07:36:03;;;;;;;10.50;6.07;;;14.10;99.90;;;;;;5047604;28;20077;-80
2023/04/21 07:38:28;;;;;;;15.02;8.13;;;14.20;99.90;;;;;;5056247;28;20044;-78
2023/04/21 07:40:54;;;;;;;14.13;8.65;;;13.90;99.90;;;;;;5034125;28;20143;-79
2023/04/21 07:43:20;;;;;;;11.73;7.63;;;14.20;99.90;;;;;;5047711;28;20048;-81
2023/04/21 07:45:46;;;;;;;11.35;8.07;;;14.50;99.90;;;;;;5042243;28;20072;-80
2023/04/21 07:55:14;;;;;;;13.98;7.53;;;13.30;99.90;;;;;;5008620;28;20044;-82
2023/04/21 07:57:40;;;;;;;11.95;7.97;;;14.30;99.90;;;;;;5049036;28;20445;-82
2023/04/21 08:00:08;;;;;;;10.30;6.97;;;14.70;99.90;;;;;;5037763;28;20121;-82
2023/04/21 08:02:33;;;;;;;8.82;6.22;;;14.80;99.90;;;;;;5031792;28;20115;-84
2023/04/21 08:05:00;;;;;;;12.60;8.05;;;13.90;99.90;;;;;;5068781;28;20457;-86
2023/04/21 08:07:26;;;;;;;13.55;8.50;;;15.00;99.90;;;;;;5035198;28;20036;-85
2023/04/21 08:09:52;;;;;;;12.10;7.53;;;14.90;99.90;;;;;;5070681;28;20652;-87
2023/04/21 08:12:18;;;;;;;15.52;7.70;;;15.20;99.90;;;;;;5074768;28;20036;-86
2023/04/21 08:14:53;;;;;;;13.10;8.38;;;15.10;99.90;;;;;;5020118;28;20158;-87
2023/04/21 08:17:49;;;;;;;9.88;6.90;;;13.60;99.90;;;;;;4981881;28;20371;-88
2023/04/21 08:20:18;;;;;;;10.05;6.55;;;15.30;99.90;;;;;;5035823;28;20059;-80
2023/04/21 08:22:43;;;;;;;11.27;7.80;;;15.20;99.90;;;;;;5054503;28;20124;-81
2023/04/21 08:25:09;;;;;;;11.60;7.68;;;15.50;99.90;;;;;;5062793;28;20124;-80
2023/04/21 08:27:39;;;;;;;10.50;6.97;;;15.40;99.90;;;;;;5072851;28;20046;-81
2023/04/21 08:30:06;;;;;;;12.93;8.65;;;15.70;99.90;;;;;;5077533;28;20115;-81
2023/04/21 08:32:32;;;;;;;10.15;7.55;;;15.60;99.90;;;;;;5064686;28;20151;-76
2023/04/21 08:34:58;;;;;;;13.65;8.35;;;15.70;99.90;;;;;;5032327;28;20236;-79
2023/04/21 08:37:23;;;;;;;8.10;6.70;;;15.90;99.90;;;;;;5026406;28;20494;-81
2023/04/21 08:39:49;;;;;;;11.43;8.77;;;16.20;99.90;;;;;;5034591;28;20114;-80
2023/04/21 08:42:17;;;;;;;14.20;8.30;;;16.40;99.90;;;;;;5017796;28;20080;-78
2023/04/21 08:44:43;;;;;;;11.82;5.80;;;16.30;99.90;;;;;;5034691;28;20710;-79
2023/04/21 08:47:10;;;;;;;15.77;7.63;;;16.50;99.90;;;;;;5052716;28;20056;-81
2023/04/21 08:49:37;;;;;;;13.60;8.93;;;16.50;99.90;;;;;;5052769;28;20052;-78
2023/04/21 08:52:04;;;;;;;13.52;7.65;;;16.60;99.90;;;;;;5034285;28;20075;-78
2023/04/21 08:54:31;;;;;;;13.63;8.23;;;16.80;99.90;;;;;;5019932;28;20111;-79
2023/04/21 08:57:02;;;;;;;12.30;7.55;;;16.90;99.90;;;;;;5037657;28;20559;-82
2023/04/21 08:59:28;;;;;;;12.25;8.05;;;17.50;99.90;;;;;;5053807;28;20048;-79
2023/04/21 09:02:14;;;;;;;12.55;7.50;;;17.30;99.90;;;;;;5049674;28;20102;-80
2023/04/21 09:04:50;;;;;;;12.55;8.13;;;17.50;99.90;;;;;;5049699;28;20055;-79
2023/04/21 09:07:35;;;;;;;11.70;8.13;;;17.50;99.90;;;;;;5052203;28;20071;-85
2023/04/21 09:10:02;;;;;;;15.07;8.57;;;17.80;99.90;;;;;;5069788;28;20924;-84
2023/04/21 09:12:41;;;;;;;9.23;6.97;;;17.90;99.90;;;;;;5051507;28;20040;-85
2023/04/21 09:15:10;;;;;;;9.43;7.50;;;17.70;99.90;;;;;;5051318;28;20579;-80
2023/04/21 09:17:37;;;;;;;9.90;7.20;;;18.00;99.90;;;;;;5052623;28;20050;-83
2023/04/21 09:20:18;;;;;;;11.02;6.63;;;17.90;99.90;;;;;;5030221;28;20045;-82
2023/04/21 09:22:46;;;;;;;11.05;6.25;;;17.90;99.90;;;;;;5064403;28;20048;-81
2023/04/21 09:25:18;;;;;;;9.18;5.90;;;18.10;99.90;;;;;;5049980;28;20119;-81
2023/04/21 09:27:45;;;;;;;13.15;7.57;;;18.30;99.90;;;;;;5033208;28;20033;-81
2023/04/21 09:30:12;;;;;;;8.20;6.68;;;18.60;99.90;;;;;;5032100;28;20043;-82
2023/04/21 09:32:39;;;;;;;13.15;6.45;;;18.80;99.90;;;;;;5042936;28;20124;-83
2023/04/21 09:35:10;;;;;;;10.48;6.57;;;19.10;99.90;;;;;;5030283;28;20103;-82
2023/04/21 09:37:37;;;;;;;7.82;5.60;;;19.20;99.90;;;;;;5054621;28;20048;-83
2023/04/21 09:40:03;;;;;;;10.93;8.02;;;19.40;99.90;;;;;;5051894;28;20047;-82
2023/04/21 09:42:31;;;;;;;12.07;6.88;;;19.50;99.90;;;;;;5046383;28;20052;-82
2023/04/21 09:44:57;;;;;;;10.52;7.00;;;19.70;99.90;;;;;;5049091;28;20044;-82
2023/04/21 09:47:24;;;;;;;8.80;5.78;;;19.50;94.50;;;;;;5049878;28;20571;-82
2023/04/21 09:49:51;;;;;;;11.40;7.47;;;19.50;75.90;;;;;;5064149;28;20087;-83
2023/04/21 09:52:22;;;;;;;11.57;7.50;;;20.00;99.90;;;;;;5045767;28;20037;-81
2023/04/21 09:55:00;;;;;;;8.15;5.78;;;19.90;77.40;;;;;;5029893;28;20126;-82
2023/04/21 09:57:29;;;;;;;11.68;6.57;;;20.00;56.50;;;;;;5067097;28;20051;-82
2023/04/21 10:00:00;;;;;;;13.50;6.43;;;20.50;50.30;;;;;;5048479;28;20049;-82
2023/04/21 10:02:30;;;;;;;9.43;5.45;;;20.10;24.30;;;;;;5049465;28;20388;-81
2023/04/21 10:04:57;;;;;;;9.48;6.38;;;20.10;9.70;;;;;;5064315;28;20037;-82
2023/04/21 10:07:26;;;;;;;10.15;6.78;;;21.20;12.00;;;;;;5053429;28;20588;-82
2023/04/21 10:09:55;;;;;;;9.57;7.00;;;20.20;16.80;;;;;;5068813;28;20036;-83
2023/04/21 10:12:23;;;;;;;8.30;5.57;;;20.60;22.30;;;;;;5051589;28;20049;-83
2023/04/21 10:14:56;;;;;;;9.35;6.10;;;20.40;8.50;;;;;;5048215;28;20439;-83
2023/04/21 10:17:25;;;;;;;9.90;6.20;;;20.60;2.70;;;;;;5047766;28;20361;-84
2023/04/21 10:19:56;;;;;;;11.98;6.97;;;20.40;1.00;;;;;;5033145;28;20136;-82
2023/04/21 10:22:30;;;;;;;8.25;5.65;;;20.60;1.00;;;;;;5047927;28;20044;-81
2023/04/21 10:24:57;;;;;;;8.80;5.68;;;20.40;1.00;;;;;;5066287;28;20075;-85
2023/04/21 10:27:39;;;;;;;11.13;6.32;;;20.70;1.00;;;;;;5047208;28;20071;-83
2023/04/21 10:30:27;;;;;;;9.77;6.10;;;20.80;1.00;;;;;;5048876;28;20045;-82
2023/04/21 10:33:06;;;;;;;11.13;6.22;;;20.90;1.00;;;;;;5048978;28;20064;-82
2023/04/21 10:35:53;;;;;;;7.70;5.15;;;21.10;1.00;;;;;;5029406;28;20041;-81
2023/04/21 10:38:39;;;;;;;11.93;6.75;;;21.00;1.00;;;;;;5063602;28;20450;-80
2023/04/21 10:41:32;;;;;;;13.65;6.38;;;21.30;1.00;;;;;;5044417;28;20045;-80
2023/04/21 10:43:59;;;;;;;10.38;6.18;;;21.20;1.00;;;;;;5064976;28;20056;-80
2023/04/21 10:46:35;;;;;;;9.65;6.20;;;21.20;1.00;;;;;;5073171;28;20041;-80
2023/04/21 10:49:08;;;;;;;11.70;5.45;;;21.30;1.00;;;;;;5049166;28;20040;-81
2023/04/21 10:51:56;;;;;;;7.35;4.50;;;21.50;1.00;;;;;;5039213;28;20047;-81
2023/04/21 10:54:22;;;;;;;7.32;4.55;;;21.10;1.00;;;;;;5046882;28;20053;-82
2023/04/21 10:56:57;;;;;;;9.13;5.68;;;21.50;1.00;;;;;;5060492;28;20474;-81
2023/04/21 10:59:25;;;;;;;11.63;5.45;;;21.60;1.00;;;;;;5045881;28;20037;-81
2023/04/21 11:01:51;;;;;;;7.97;4.57;;;21.60;1.00;;;;;;5069642;28;20126;-82
2023/04/21 11:04:18;;;;;;;8.40;5.57;;;21.50;1.00;;;;;;5029616;28;20142;-80
2023/04/21 11:07:11;;;;;;;7.80;4.65;;;21.60;1.00;;;;;;5066765;28;20131;-80
2023/04/21 11:09:41;;;;;;;13.48;5.45;;;21.30;1.00;;;;;;5061506;28;20052;-81
2023/04/21 11:12:13;;;;;;;8.15;5.13;;;21.40;1.00;;;;;;5033951;28;20041;-82
2023/04/21 11:14:42;;;;;;;8.10;5.60;;;21.40;99.90;;;;;;5067497;28;20203;-81
2023/04/21 11:17:12;;;;;;;7.43;4.72;;;21.60;99.90;;;;;;5062221;28;20048;-81
2023/04/21 11:19:38;;;;;;;10.70;5.80;;;21.60;99.90;;;;;;5070312;28;20519;-81
2023/04/21 11:22:04;;;;;;;8.88;4.88;;;21.80;99.90;;;;;;5053276;28;20028;-81
2023/04/21 11:24:31;;;;;;;7.95;4.97;;;22.10;99.90;;;;;;5069077;28;20059;-81
2023/04/21 11:26:59;;;;;;;8.48;5.28;;;22.00;99.90;;;;;;5052655;28;20041;-80
2023/04/21 11:29:25;;;;;;;9.25;4.32;;;22.00;99.90;;;;;;5053246;28;20090;-81
2023/04/21 11:31:52;;;;;;;12.82;5.43;;;22.00;99.90;;;;;;5052318;28;20040;-81
2023/04/21 11:34:24;;;;;;;10.93;4.93;;;21.90;99.90;;;;;;5053134;28;20389;-82
2023/04/21 11:36:50;;;;;;;6.05;4.38;;;22.10;99.90;;;;;;5069598;28;20048;-81
2023/04/21 11:39:19;;;;;;;9.13;5.13;;;22.20;99.90;;;;;;5070079;28;20040;-80
2023/04/21 11:41:48;;;;;;;6.30;4.55;;;22.00;99.90;;;;;;5049565;28;20040;-82
2023/04/21 11:44:33;;;;;;;6.45;3.78;;;22.30;99.90;;;;;;5064268;28;20036;-80
2023/04/21 11:46:59;;;;;;;9.88;4.72;;;22.40;99.90;;;;;;5066119;28;20047;-80
2023/04/21 11:49:29;;;;;;;7.55;3.92;;;22.50;99.90;;;;;;5049686;28;20040;-81
2023/04/21 11:51:55;;;;;;;6.18;4.63;;;22.30;99.90;;;;;;5052579;28;20539;-82
2023/04/21 11:54:23;;;;;;;10.13;5.15;;;22.00;99.90;;;;;;5048057;28;20048;-80
2023/04/21 11:56:50;;;;;;;8.18;4.75;;;22.10;99.90;;;;;;5086765;28;20393;-80
2023/04/21 11:59:21;;;;;;;7.25;3.60;;;22.40;99.90;;;;;;5033095;28;20477;-81
2023/04/21 12:01:48;;;;;;;5.95;3.78;;;22.50;99.90;;;;;;5045040;28;20072;-81
2023/04/21 12:04:16;;;;;;;6.25;4.35;;;22.10;99.90;;;;;;5052897;28;20044;-81
2023/04/21 12:06:43;;;;;;;7.75;4.40;;;22.40;99.90;;;;;;5051892;28;20442;-79
2023/04/21 12:09:16;;;;;;;8.60;4.60;;;22.60;99.90;;;;;;5063227;28;20107;-80
2023/04/21 12:11:45;;;;;;;5.55;4.50;;;22.20;99.90;;;;;;5065631;28;20094;-81
2023/04/21 12:14:15;;;;;;;7.47;4.25;;;22.30;99.90;;;;;;5052561;28;20052;-79
2023/04/21 12:16:41;;;;;;;4.97;4.40;;;22.10;99.90;;;;;;5067427;28;20397;-80
2023/04/21 12:19:07;;;;;;;6.50;4.13;;;22.10;99.90;;;;;;5069228;28;20048;-81
2023/04/21 12:21:35;;;;;;;10.68;5.35;;;22.40;99.90;;;;;;5044595;28;20492;-81
2023/04/21 12:24:03;;;;;;;9.93;5.10;;;22.10;99.90;;;;;;5033449;28;20136;-82
2023/04/21 12:26:29;;;;;;;5.30;4.32;;;22.30;99.90;;;;;;5046779;28;20119;-81
2023/04/21 12:28:55;;;;;;;5.35;3.80;;;22.20;99.90;;;;;;5051018;28;20647;-80
2023/04/21 12:31:20;;;;;;;5.40;3.80;;;22.40;99.90;;;;;;5037766;28;20079;-80
2023/04/21 12:33:46;;;;;;;9.15;4.03;;;22.30;99.90;;;;;;5079585;28;20076;-81
2023/04/21 12:36:12;;;;;;;7.03;4.40;;;22.20;83.50;;;;;;5065570;28;20044;-81
2023/04/21 12:38:38;;;;;;;7.38;4.25;;;22.60;94.70;;;;;;5066881;28;20060;-80
2023/04/21 12:41:04;;;;;;;5.32;3.80;;;22.50;50.60;;;;;;5030769;28;20059;-80
2023/04/21 12:43:30;;;;;;;9.77;3.78;;;22.60;99.80;;;;;;5031838;28;20497;-80
2023/04/21 12:45:56;;;;;;;4.47;2.95;;;23.00;60.10;;;;;;5067768;28;20032;-82